»·PEaware :: N92497 KCCB-KLPC

N92497 :: KCCB-KLPC

FLIGHT INFORMATION

Flight Status: Arrived
Operator: Privately registered:
United States
More flights under this callsign
Pilot: Chris A. (85)
Aircraft: PIPER J-3 CUB
(J3)
More flights by this aircraft type
Origin: KCCB Cable
United States
Destination: KLPC Lompoc
United States
More flights between these airports :: More routes between these airports
Route: +
File this flight plan on PilotEdge
Remarks:
Altitude:
(Current/Filed)
0ft
Speed:
(Current/Filed)
0kts
Departed: 10-Apr-13 08:02 PM
Arrived: 10-Apr-13 09:47 PM
Distance/Time
Traveled:
141nm/1:45
Distance/Time
To Go:
Arrived

Flight Plot

Page will automatically refresh every two minutes.

Flight plan parsing failed; only flown route is shown


Map Options




Map Legend


Flown Route
Filed Route
Departure Airport
Arrival Airport
Navaid (VOR, NDB)
Fix

Horizontal Profiles

Position Reports

Time Latitude Longitude Heading Altitude Ground
Speed
10-Apr-13 20:01 34.180843 -118.259194 277 4275ft 75kts
10-Apr-13 20:02 34.186938 -118.282913 284 4280ft 77kts
10-Apr-13 20:03 34.193736 -118.307490 284 4292ft 77kts
10-Apr-13 20:04 34.200533 -118.332045 284 4301ft 77kts
10-Apr-13 20:05 34.207329 -118.356597 284 4312ft 77kts
10-Apr-13 20:06 34.213236 -118.379753 288 4347ft 71kts
10-Apr-13 20:07 34.217494 -118.403897 279 4995ft 84kts
10-Apr-13 20:08 34.224605 -118.430637 281 4423ft 84kts
10-Apr-13 20:09 34.229100 -118.457333 283 3937ft 79kts
10-Apr-13 20:10 34.233791 -118.484095 286 3331ft 82kts
10-Apr-13 20:11 34.238915 -118.509788 286 2824ft 72kts
10-Apr-13 20:12 34.243841 -118.532071 286 2776ft 67kts
10-Apr-13 20:13 34.249507 -118.553886 286 2763ft 68kts
10-Apr-13 20:14 34.255481 -118.575158 287 2800ft 65kts
10-Apr-13 20:15 34.261384 -118.596092 287 2839ft 65kts
10-Apr-13 20:16 34.267059 -118.616356 287 2915ft 62kts
10-Apr-13 20:17 34.272131 -118.636307 287 2979ft 62kts
10-Apr-13 20:18 34.277163 -118.656316 287 3043ft 62kts
10-Apr-13 20:19 34.282175 -118.676248 287 3105ft 62kts
10-Apr-13 20:20 34.287185 -118.696174 287 3167ft 62kts
10-Apr-13 20:21 34.292195 -118.716104 287 3227ft 62kts
10-Apr-13 20:22 34.297364 -118.736573 287 3275ft 63kts
10-Apr-13 20:23 34.302579 -118.757195 287 3334ft 64kts
10-Apr-13 20:24 34.307776 -118.777743 287 3389ft 64kts
10-Apr-13 20:25 34.312884 -118.798644 284 3449ft 64kts
10-Apr-13 20:26 34.316978 -118.819834 283 3512ft 64kts
10-Apr-13 20:27 34.320956 -118.841234 281 3565ft 65kts
10-Apr-13 20:28 34.324857 -118.863005 280 3622ft 66kts
10-Apr-13 20:29 34.329291 -118.885017 280 3675ft 67kts
10-Apr-13 20:30 34.333859 -118.907056 280 3733ft 67kts
10-Apr-13 20:31 34.338394 -118.929100 280 3790ft 67kts
10-Apr-13 20:32 34.342924 -118.951140 280 3846ft 67kts
10-Apr-13 20:33 34.347470 -118.973251 280 3902ft 67kts
10-Apr-13 20:34 34.351997 -118.995277 280 3956ft 67kts
10-Apr-13 20:35 34.356522 -119.017286 280 4010ft 67kts
10-Apr-13 20:36 34.361255 -119.038930 282 4077ft 65kts
10-Apr-13 20:37 34.365731 -119.060041 283 4135ft 64kts
10-Apr-13 20:38 34.370774 -119.080617 288 4204ft 63kts
10-Apr-13 20:39 34.376411 -119.100833 288 4265ft 63kts
10-Apr-13 20:40 34.381675 -119.121097 287 4324ft 63kts
10-Apr-13 20:41 34.386256 -119.141605 285 4381ft 63kts
10-Apr-13 20:42 34.390145 -119.162333 281 4438ft 63kts
10-Apr-13 20:43 34.392571 -119.183393 277 4494ft 63kts
10-Apr-13 20:44 34.394061 -119.204558 278 4559ft 61kts
10-Apr-13 20:45 34.394637 -119.225004 271 4619ft 61kts
10-Apr-13 20:46 34.392486 -119.245681 264 4672ft 62kts
10-Apr-13 20:47 34.388698 -119.266131 260 4725ft 62kts
10-Apr-13 20:48 34.384475 -119.286514 260 4779ft 62kts
10-Apr-13 20:49 34.382205 -119.307048 280 4821ft 60kts
10-Apr-13 20:50 34.388435 -119.325767 296 4870ft 59kts
10-Apr-13 20:51 34.395037 -119.344340 293 4920ft 60kts
10-Apr-13 20:52 34.401583 -119.362877 293 4971ft 59kts
10-Apr-13 20:53 34.407803 -119.381564 293 5019ft 59kts
10-Apr-13 20:54 34.414144 -119.400175 292 5066ft 59kts
10-Apr-13 20:55 34.420896 -119.418566 296 5114ft 59kts
10-Apr-13 20:56 34.428327 -119.436520 295 5162ft 59kts
10-Apr-13 20:57 34.433471 -119.454487 292 5290ft 46kts
10-Apr-13 20:58 34.435277 -119.472367 292 5279ft 58kts
10-Apr-13 20:59 34.436327 -119.493990 292 5265ft 69kts
10-Apr-13 21:00 34.438107 -119.516483 296 5319ft 66kts
10-Apr-13 21:01 34.439729 -119.539037 294 5365ft 67kts
10-Apr-13 21:02 34.441833 -119.561305 296 5415ft 66kts
10-Apr-13 21:03 34.445022 -119.582918 303 5460ft 63kts
10-Apr-13 21:04 34.448664 -119.603977 300 5504ft 64kts
10-Apr-13 21:05 34.452140 -119.625065 301 5551ft 63kts
10-Apr-13 21:06 34.455473 -119.646144 302 5595ft 63kts
10-Apr-13 21:07 34.458828 -119.667196 303 5636ft 63kts
10-Apr-13 21:08 34.462865 -119.687765 305 5680ft 62kts
10-Apr-13 21:09 34.467486 -119.707685 306 5726ft 61kts
10-Apr-13 21:10 34.472116 -119.727478 307 5766ft 60kts
10-Apr-13 21:11 34.477631 -119.746396 312 5808ft 58kts
10-Apr-13 21:12 34.483188 -119.764547 313 5884ft 55kts
10-Apr-13 21:13 34.487173 -119.783073 312 5911ft 57kts
10-Apr-13 21:14 34.491142 -119.801717 312 5948ft 57kts
10-Apr-13 21:15 34.495101 -119.820303 312 5976ft 58kts
10-Apr-13 21:16 34.499539 -119.839523 312 5958ft 59kts
10-Apr-13 21:17 34.503992 -119.858677 312 5948ft 59kts
10-Apr-13 21:18 34.508803 -119.878478 312 5862ft 60kts
10-Apr-13 21:19 34.513884 -119.898510 313 5595ft 62kts
10-Apr-13 21:20 34.518584 -119.914790 314 5377ft 61kts
10-Apr-13 21:21 34.525237 -119.937713 314 5091ft 61kts
10-Apr-13 21:22 34.531102 -119.956764 316 4863ft 58kts
10-Apr-13 21:23 34.537825 -119.974591 317 4638ft 56kts
10-Apr-13 21:24 34.550193 -119.989416 325 4341ft 68kts
10-Apr-13 21:25 34.562874 -120.005890 304 4176ft 67kts
10-Apr-13 21:26 34.571727 -120.021464 300 4039ft 67kts
10-Apr-13 21:27 34.581906 -120.044987 283 3851ft 67kts
10-Apr-13 21:28 34.586048 -120.063196 284 3736ft 67kts
10-Apr-13 21:29 34.592935 -120.088294 285 3587ft 67kts
10-Apr-13 21:30 34.597235 -120.106333 285 3490ft 67kts
10-Apr-13 21:31 34.603441 -120.127744 285 3381ft 67kts
10-Apr-13 21:32 34.609466 -120.149244 285 3283ft 67kts
10-Apr-13 21:33 34.614979 -120.170746 283 3192ft 66kts
10-Apr-13 21:34 34.620263 -120.192263 283 3109ft 66kts
10-Apr-13 21:35 34.625533 -120.213717 283 3031ft 66kts
10-Apr-13 21:36 34.630790 -120.235108 283 2960ft 66kts
10-Apr-13 21:37 34.636350 -120.256936 289 2841ft 69kts
10-Apr-13 21:38 34.645797 -120.276959 297 2744ft 66kts
10-Apr-13 21:39 34.654623 -120.296490 292 2632ft 67kts
10-Apr-13 21:40 34.660521 -120.318120 277 2449ft 67kts
10-Apr-13 21:41 34.661810 -120.341203 273 2216ft 70kts
10-Apr-13 21:42 34.663466 -120.365632 273 1766ft 71kts
10-Apr-13 21:43 34.665217 -120.389376 274 1396ft 71kts
10-Apr-13 21:44 34.665932 -120.413338 270 969ft 69kts
10-Apr-13 21:45 34.665878 -120.436280 270 575ft 66kts
10-Apr-13 21:46 34.665602 -120.458086 270 157ft 57kts
10-Apr-13 21:47 34.665764 -120.467516 326 91ft 8kts
10-Apr-13 21:48 34.666393 -120.464342 88 91ft 20kts
10-Apr-13 21:49 34.666529 -120.459870 10 91ft 0kts
10-Apr-13 21:50 34.666576 -120.459862 4 91ft 0kts

Navigation Log

Ident Type
Flight plan parsing failed, navigation log unavailable